createdAt,value
2023-08-23T00:01:28.485Z,45.52
2023-08-23T00:03:10.301Z,45.66
2023-08-23T00:04:52.128Z,46.46
2023-08-23T00:06:33.876Z,46.62
2023-08-23T00:08:15.627Z,48.30
2023-08-23T00:09:57.599Z,49.23
2023-08-23T00:11:39.356Z,48.33
2023-08-23T00:13:21.158Z,47.57
2023-08-23T00:15:02.937Z,48.03
2023-08-23T00:16:44.809Z,48.70
2023-08-23T00:18:26.605Z,48.47
2023-08-23T00:20:08.379Z,48.01
2023-08-23T00:21:50.185Z,49.16
2023-08-23T00:23:31.949Z,48.08
2023-08-23T00:25:13.738Z,48.22
2023-08-23T00:26:55.522Z,46.49
2023-08-23T00:28:37.281Z,46.83
2023-08-23T00:30:19.073Z,47.37
2023-08-23T00:32:00.901Z,48.01
2023-08-23T00:33:42.842Z,46.75
2023-08-23T00:35:24.697Z,46.02
2023-08-23T00:37:06.445Z,45.89
2023-08-23T00:38:48.209Z,47.65
2023-08-23T00:40:29.969Z,48.55
2023-08-23T00:42:11.728Z,48.83
2023-08-23T00:43:53.494Z,49.09
2023-08-23T00:45:35.244Z,48.48
2023-08-23T00:47:16.980Z,48.20
2023-08-23T00:48:58.750Z,48.81
2023-08-23T00:50:40.510Z,48.81
2023-08-23T00:52:22.277Z,48.56
2023-08-23T00:54:04.043Z,48.11
2023-08-23T00:55:45.798Z,48.80
2023-08-23T00:57:27.594Z,48.07
2023-08-23T00:59:09.426Z,47.08
2023-08-23T01:00:51.241Z,47.87
2023-08-23T01:02:33.002Z,47.83
2023-08-23T01:04:14.781Z,47.65
2023-08-23T01:05:56.592Z,47.55
2023-08-23T01:07:38.456Z,47.12
2023-08-23T01:09:20.229Z,46.14
2023-08-23T01:11:02.006Z,46.20
2023-08-23T01:12:43.761Z,47.17
2023-08-23T01:14:25.555Z,46.86
2023-08-23T01:16:07.382Z,46.50
2023-08-23T01:17:49.453Z,47.32
2023-08-23T01:19:31.579Z,47.82
2023-08-23T01:21:13.388Z,47.22
2023-08-23T01:22:55.134Z,46.82
2023-08-23T01:24:36.910Z,47.02
2023-08-23T01:26:18.702Z,46.48
2023-08-23T01:28:00.798Z,47.18
2023-08-23T01:29:42.827Z,47.65
2023-08-23T01:31:24.691Z,49.14
2023-08-23T01:33:06.536Z,49.45
2023-08-23T01:34:48.306Z,49.46
2023-08-23T01:36:30.086Z,49.80
2023-08-23T01:38:11.855Z,49.64
2023-08-23T01:39:53.608Z,49.26
2023-08-23T01:41:35.369Z,49.11
2023-08-23T01:43:17.171Z,48.71
2023-08-23T01:44:58.918Z,49.05
2023-08-23T01:46:40.671Z,50.88
2023-08-23T01:48:22.439Z,51.03
2023-08-23T01:50:04.185Z,50.14
2023-08-23T01:51:45.947Z,48.78
2023-08-23T01:53:27.732Z,48.86
2023-08-23T01:55:09.730Z,49.57
2023-08-23T01:56:51.481Z,49.21
2023-08-23T01:58:33.249Z,48.93
2023-08-23T02:00:15.004Z,50.35
2023-08-23T02:01:56.788Z,49.28
2023-08-23T02:03:38.577Z,51.08
2023-08-23T02:05:20.334Z,50.54
2023-08-23T02:07:02.094Z,51.25
2023-08-23T02:08:43.857Z,50.00
2023-08-23T02:10:25.630Z,47.59
2023-08-23T02:12:07.418Z,46.17
2023-08-23T02:13:49.190Z,48.57
2023-08-23T02:15:30.990Z,47.62
2023-08-23T02:17:12.800Z,47.09
2023-08-23T02:18:54.562Z,49.71
2023-08-23T02:20:36.313Z,49.04
2023-08-23T02:22:18.103Z,48.99
2023-08-23T02:23:59.891Z,49.29
2023-08-23T02:25:41.670Z,49.07
2023-08-23T02:27:23.434Z,48.88
2023-08-23T02:29:06.063Z,48.17
2023-08-23T02:30:47.798Z,47.78
2023-08-23T02:32:29.627Z,49.04
2023-08-23T02:34:11.421Z,49.08
2023-08-23T02:35:53.184Z,46.86
2023-08-23T02:37:34.995Z,47.92
2023-08-23T02:39:16.746Z,47.65
2023-08-23T02:40:58.522Z,48.38
2023-08-23T02:42:40.271Z,48.57
2023-08-23T02:44:22.073Z,48.06
2023-08-23T02:46:03.831Z,48.78
2023-08-23T02:47:45.825Z,49.25
2023-08-23T02:49:27.828Z,49.03
2023-08-23T02:51:09.601Z,48.77
2023-08-23T02:52:51.422Z,48.93
2023-08-23T02:54:33.166Z,50.30
2023-08-23T02:56:14.939Z,48.50
2023-08-23T02:57:56.749Z,50.42
2023-08-23T02:59:38.488Z,49.95
2023-08-23T03:01:20.276Z,46.10
2023-08-23T03:03:02.158Z,48.14
2023-08-23T03:04:43.962Z,46.59
2023-08-23T03:06:25.718Z,48.88
2023-08-23T03:08:07.478Z,49.33
2023-08-23T03:09:49.236Z,50.08
2023-08-23T03:11:30.996Z,49.92
2023-08-23T03:13:12.747Z,49.68
2023-08-23T03:14:54.504Z,49.15
2023-08-23T03:16:36.294Z,47.77
2023-08-23T03:18:18.185Z,49.82
2023-08-23T03:19:59.957Z,49.94
2023-08-23T03:21:41.703Z,50.01
2023-08-23T03:23:23.510Z,50.38
2023-08-23T03:25:05.271Z,50.23
2023-08-23T03:26:47.005Z,50.47
2023-08-23T03:28:28.804Z,47.82
2023-08-23T03:30:10.550Z,48.37
2023-08-23T03:31:52.294Z,49.65
2023-08-23T03:33:34.057Z,49.09
2023-08-23T03:35:15.989Z,48.73
2023-08-23T03:36:57.772Z,49.01
2023-08-23T03:38:39.520Z,49.17
2023-08-23T03:40:21.266Z,49.32
2023-08-23T03:42:03.064Z,50.00
2023-08-23T03:43:44.831Z,49.46
2023-08-23T03:45:26.582Z,47.99
2023-08-23T03:47:08.353Z,47.02
2023-08-23T03:48:50.121Z,47.31
2023-08-23T03:50:31.870Z,46.21
2023-08-23T03:52:13.634Z,47.72
2023-08-23T03:53:55.419Z,48.36
2023-08-23T03:55:37.172Z,48.00
2023-08-23T03:57:18.922Z,48.09
2023-08-23T03:59:00.670Z,48.00
2023-08-23T04:00:42.424Z,47.73
2023-08-23T04:02:24.205Z,47.72
2023-08-23T04:04:06.083Z,46.72
2023-08-23T04:05:47.993Z,46.49
2023-08-23T04:07:29.768Z,45.84
2023-08-23T04:09:11.539Z,46.90
2023-08-23T04:10:53.296Z,46.79
2023-08-23T04:12:35.072Z,47.62
2023-08-23T04:14:16.881Z,47.18
2023-08-23T04:15:58.668Z,47.66
2023-08-23T04:17:40.474Z,47.51
2023-08-23T04:19:22.266Z,47.89
2023-08-23T04:21:04.067Z,47.94
2023-08-23T04:22:45.841Z,47.91
2023-08-23T04:24:27.609Z,47.65
2023-08-23T04:26:09.378Z,47.33
2023-08-23T04:27:51.127Z,46.66
2023-08-23T04:29:32.883Z,47.92
2023-08-23T04:31:14.664Z,47.45
2023-08-23T04:32:56.517Z,48.17
2023-08-23T04:34:38.327Z,47.01
2023-08-23T04:36:20.080Z,48.05
2023-08-23T04:38:01.860Z,48.27
2023-08-23T04:39:43.600Z,48.82
2023-08-23T04:41:25.340Z,48.24
2023-08-23T04:43:07.102Z,47.15
2023-08-23T04:44:48.871Z,46.75
2023-08-23T04:46:30.653Z,47.62
2023-08-23T04:48:12.459Z,48.49
2023-08-23T04:49:54.221Z,47.94
2023-08-23T04:51:35.970Z,48.73
2023-08-23T04:53:17.746Z,48.03
2023-08-23T04:54:59.521Z,48.41
2023-08-23T04:56:41.277Z,48.46
2023-08-23T04:58:23.033Z,48.54
2023-08-23T05:00:04.781Z,48.25
2023-08-23T05:01:46.549Z,45.82
2023-08-23T05:03:28.342Z,45.54
2023-08-23T05:05:10.192Z,48.06
2023-08-23T05:06:52.001Z,44.90
2023-08-23T05:08:33.743Z,44.73
2023-08-23T05:10:15.506Z,46.60
2023-08-23T05:11:57.278Z,47.19
2023-08-23T05:13:39.040Z,43.63
2023-08-23T05:15:20.832Z,42.66
2023-08-23T05:17:02.600Z,42.32
2023-08-23T05:18:44.384Z,45.81
2023-08-23T05:20:26.136Z,45.91
2023-08-23T05:22:07.900Z,46.81
2023-08-23T05:23:49.660Z,47.58
2023-08-23T05:25:31.452Z,46.62
2023-08-23T05:27:13.207Z,46.71
2023-08-23T05:28:54.974Z,46.35
2023-08-23T05:30:36.737Z,46.41
2023-08-23T05:32:18.506Z,46.58
2023-08-23T05:34:00.297Z,46.81
2023-08-23T05:35:42.063Z,47.07
2023-08-23T05:37:23.829Z,46.35
2023-08-23T05:39:05.612Z,47.07
2023-08-23T05:40:47.415Z,47.66
2023-08-23T05:42:29.151Z,48.04
2023-08-23T05:44:10.915Z,47.21
2023-08-23T05:45:52.751Z,49.61
2023-08-23T05:47:34.638Z,46.54
2023-08-23T05:49:16.449Z,49.16
2023-08-23T05:50:58.220Z,48.52
2023-08-23T05:52:39.977Z,49.72
2023-08-23T05:54:21.747Z,49.59
2023-08-23T05:56:03.503Z,49.75
2023-08-23T05:57:45.545Z,48.50
2023-08-23T05:59:27.580Z,49.23
2023-08-23T06:01:09.356Z,48.66
2023-08-23T06:02:51.248Z,48.32
2023-08-23T06:04:33.045Z,47.93
2023-08-23T06:06:14.793Z,47.31
2023-08-23T06:07:56.552Z,47.14
2023-08-23T06:09:38.283Z,47.76
2023-08-23T06:11:20.024Z,48.60
2023-08-23T06:13:01.828Z,49.44
2023-08-23T06:14:43.569Z,48.59
2023-08-23T06:16:25.404Z,49.07
2023-08-23T06:18:07.264Z,48.49
2023-08-23T06:19:49.057Z,48.76
2023-08-23T06:21:30.909Z,47.92
2023-08-23T06:23:12.697Z,48.09
2023-08-23T06:24:54.453Z,47.54
2023-08-23T06:26:36.213Z,47.40
2023-08-23T06:28:18.013Z,47.47
2023-08-23T06:29:59.763Z,48.72
2023-08-23T06:31:41.587Z,47.51
2023-08-23T06:33:23.460Z,47.83
2023-08-23T06:35:05.240Z,47.77
2023-08-23T06:36:47.006Z,48.09
2023-08-23T06:38:28.758Z,48.53
2023-08-23T06:40:10.521Z,48.21
2023-08-23T06:41:52.285Z,47.66
2023-08-23T06:43:34.067Z,46.81
2023-08-23T06:45:15.837Z,46.26
2023-08-23T06:46:57.627Z,46.85
2023-08-23T06:48:39.385Z,46.39
2023-08-23T06:50:21.207Z,47.30
2023-08-23T06:52:03.064Z,49.09
2023-08-23T06:53:44.812Z,46.28
2023-08-23T06:55:26.612Z,46.60
2023-08-23T06:57:08.360Z,46.44
2023-08-23T06:58:50.117Z,45.50
2023-08-23T07:00:31.944Z,45.68
2023-08-23T07:02:13.724Z,45.74
2023-08-23T07:03:55.542Z,45.86
2023-08-23T07:05:37.350Z,45.76
2023-08-23T07:07:19.092Z,45.49
2023-08-23T07:09:00.886Z,45.57
2023-08-23T07:10:44.396Z,44.44
2023-08-23T07:12:27.136Z,44.31
2023-08-23T07:14:08.875Z,44.47
2023-08-23T07:15:50.639Z,43.52
2023-08-23T07:17:32.442Z,43.79
2023-08-23T07:19:14.235Z,44.13
2023-08-23T07:20:56.001Z,43.58
2023-08-23T07:22:37.779Z,43.47
2023-08-23T07:24:19.522Z,45.47
2023-08-23T07:26:01.582Z,43.28
2023-08-23T07:27:43.401Z,44.25
2023-08-23T07:29:25.214Z,43.99
2023-08-23T07:31:06.984Z,44.33
2023-08-23T07:32:49.524Z,44.69
2023-08-23T07:34:31.436Z,43.54
2023-08-23T07:36:13.335Z,43.24
2023-08-23T07:37:55.347Z,43.86
2023-08-23T07:39:37.120Z,43.85
2023-08-23T07:41:18.884Z,42.92
2023-08-23T07:43:00.973Z,41.16
2023-08-23T07:44:42.797Z,40.53
2023-08-23T07:46:24.582Z,40.61
2023-08-23T07:48:06.400Z,40.71
2023-08-23T07:49:48.329Z,41.53
2023-08-23T07:51:30.199Z,39.78
2023-08-23T07:53:11.973Z,38.12
2023-08-23T07:54:53.737Z,38.79
2023-08-23T07:56:35.505Z,38.20
2023-08-23T07:58:17.284Z,38.11
2023-08-23T07:59:59.059Z,38.65
2023-08-23T08:01:40.859Z,40.53
2023-08-23T08:03:23.361Z,38.30
2023-08-23T08:05:05.115Z,36.55
2023-08-23T08:06:46.931Z,35.19
2023-08-23T08:08:28.822Z,34.25
2023-08-23T08:10:10.568Z,33.33
2023-08-23T08:11:52.359Z,34.40
2023-08-23T08:13:34.279Z,34.32
2023-08-23T08:15:16.266Z,32.43
2023-08-23T08:16:58.126Z,31.10
2023-08-23T08:18:39.922Z,29.95
2023-08-23T08:20:21.710Z,29.56
2023-08-23T08:22:03.509Z,29.65
2023-08-23T08:23:45.276Z,29.62
2023-08-23T08:25:27.116Z,30.90
2023-08-23T08:27:09.082Z,30.87
2023-08-23T08:28:50.850Z,29.19
2023-08-23T08:30:32.863Z,29.20
2023-08-23T08:32:14.908Z,29.18
2023-08-23T08:33:56.805Z,28.83
2023-08-23T08:35:38.736Z,28.16
2023-08-23T08:37:20.583Z,29.43
2023-08-23T08:39:02.376Z,31.20
2023-08-23T08:40:44.140Z,31.10
2023-08-23T08:42:25.921Z,29.40
2023-08-23T08:44:08.324Z,29.91
2023-08-23T08:45:50.185Z,29.28
2023-08-23T08:47:32.180Z,29.20
2023-08-23T08:49:13.974Z,29.51
2023-08-23T08:50:55.718Z,29.03
2023-08-23T08:52:42.785Z,29.08
2023-08-23T08:54:24.555Z,28.43
2023-08-23T08:56:06.292Z,27.24
2023-08-23T08:57:48.247Z,27.60
2023-08-23T08:59:30.235Z,28.20
2023-08-23T09:01:12.035Z,27.33
2023-08-23T09:02:53.993Z,26.67
2023-08-23T09:04:35.783Z,26.94
2023-08-23T09:06:17.521Z,28.77
2023-08-23T09:07:59.299Z,28.03
2023-08-23T09:09:41.081Z,27.06
2023-08-23T09:11:22.984Z,27.20
2023-08-23T09:13:04.766Z,26.65
2023-08-23T09:14:46.509Z,26.02
2023-08-23T09:16:28.257Z,26.09
2023-08-23T09:18:10.094Z,26.55
2023-08-23T09:19:51.906Z,26.41
2023-08-23T09:21:33.667Z,28.04
2023-08-23T09:23:15.453Z,26.63
2023-08-23T09:24:57.210Z,26.57
2023-08-23T09:26:38.988Z,25.95
2023-08-23T09:28:20.762Z,26.86
2023-08-23T09:30:02.527Z,26.46
2023-08-23T09:31:44.347Z,25.69
2023-08-23T09:33:26.209Z,25.35
2023-08-23T09:35:07.990Z,26.01
2023-08-23T09:36:49.776Z,25.50
2023-08-23T09:38:31.532Z,25.79
2023-08-23T09:40:13.281Z,25.44
2023-08-23T09:42:01.230Z,24.86
2023-08-23T09:43:43.519Z,24.73
2023-08-23T09:45:25.274Z,24.91
2023-08-23T09:48:48.751Z,25.23
2023-08-23T09:50:30.645Z,25.60
2023-08-23T09:52:12.409Z,26.37
2023-08-23T09:53:54.165Z,24.90
2023-08-23T09:55:35.926Z,25.36
2023-08-23T09:57:17.680Z,26.23
2023-08-23T09:58:59.444Z,26.27
2023-08-23T10:00:41.233Z,25.08
2023-08-23T10:02:23.121Z,24.51
2023-08-23T10:04:05.013Z,25.02
2023-08-23T10:05:46.830Z,24.31
2023-08-23T10:07:28.583Z,24.73
2023-08-23T10:09:10.353Z,24.04
2023-08-23T10:10:52.138Z,22.40
2023-08-23T10:12:33.885Z,24.18
2023-08-23T10:14:15.655Z,22.36
2023-08-23T10:15:57.424Z,23.88
2023-08-23T10:17:39.241Z,24.57
2023-08-23T10:19:20.993Z,23.65
2023-08-23T10:21:02.745Z,23.32
2023-08-23T10:22:44.530Z,22.28
2023-08-23T10:24:26.276Z,22.80
2023-08-23T10:26:08.002Z,23.60
2023-08-23T10:27:50.056Z,22.07
2023-08-23T10:29:31.963Z,23.18
2023-08-23T10:31:20.416Z,22.30
2023-08-23T10:33:02.928Z,23.08
2023-08-23T10:34:44.751Z,21.86
2023-08-23T10:36:26.548Z,22.70
2023-08-23T10:38:08.374Z,21.49
2023-08-23T10:39:50.754Z,22.37
2023-08-23T10:41:32.568Z,22.15
2023-08-23T10:43:14.366Z,21.40
2023-08-23T10:44:56.145Z,21.74
2023-08-23T10:46:37.919Z,20.78
2023-08-23T10:48:19.889Z,21.29
2023-08-23T10:50:01.705Z,21.78
2023-08-23T10:51:43.464Z,21.83
2023-08-23T10:53:28.039Z,20.94
2023-08-23T10:55:10.966Z,22.58
2023-08-23T10:56:52.722Z,20.58
2023-08-23T10:58:34.530Z,21.10
2023-08-23T11:00:16.362Z,21.97
2023-08-23T11:01:58.151Z,21.74
2023-08-23T11:03:39.911Z,22.29
2023-08-23T11:05:21.697Z,22.46
2023-08-23T11:07:03.492Z,22.39
2023-08-23T11:08:45.236Z,21.98
2023-08-23T11:10:27.014Z,22.35
2023-08-23T11:12:08.770Z,21.83
2023-08-23T11:13:50.521Z,20.77
2023-08-23T11:15:32.295Z,21.25
2023-08-23T11:17:14.050Z,20.70
2023-08-23T11:18:55.837Z,20.78
2023-08-23T11:20:37.607Z,21.50
2023-08-23T11:22:19.356Z,21.86
2023-08-23T11:24:01.104Z,20.87
2023-08-23T11:25:42.890Z,21.72
2023-08-23T11:27:24.652Z,22.93
2023-08-23T11:29:06.403Z,22.65
2023-08-23T11:30:48.160Z,20.52
2023-08-23T11:32:29.904Z,22.83
2023-08-23T11:34:11.651Z,21.20
2023-08-23T11:35:53.431Z,21.90
2023-08-23T11:37:35.160Z,21.53
2023-08-23T11:39:16.907Z,21.37
2023-08-23T11:40:58.671Z,21.38
2023-08-23T11:42:40.436Z,22.33
2023-08-23T11:44:22.220Z,20.82
2023-08-23T11:46:04.098Z,21.52
2023-08-23T11:47:46.102Z,21.77
2023-08-23T11:49:28.140Z,21.03
2023-08-23T11:51:09.892Z,20.07
2023-08-23T11:52:51.640Z,20.49
2023-08-23T11:54:33.540Z,21.14
2023-08-23T11:56:15.313Z,20.88
2023-08-23T11:57:57.080Z,20.04
2023-08-23T11:59:38.860Z,21.36
2023-08-23T12:01:20.649Z,21.22
2023-08-23T12:03:02.455Z,20.92
2023-08-23T12:04:44.257Z,20.72
2023-08-23T12:06:26.007Z,21.84
2023-08-23T12:08:07.767Z,22.46
2023-08-23T12:09:49.525Z,21.95
2023-08-23T12:11:31.295Z,21.65
2023-08-23T12:13:13.071Z,21.77
2023-08-23T12:14:54.858Z,21.98
2023-08-23T12:16:36.853Z,20.55
2023-08-23T12:18:18.720Z,22.32
2023-08-23T12:20:00.573Z,23.24
2023-08-23T12:21:42.313Z,22.29
2023-08-23T12:23:24.091Z,22.46
2023-08-23T12:25:05.848Z,20.99
2023-08-23T12:26:47.618Z,20.98
2023-08-23T12:28:29.415Z,20.99
2023-08-23T12:30:11.168Z,20.16
2023-08-23T12:31:53.983Z,20.63
2023-08-23T12:33:37.449Z,21.44
2023-08-23T12:35:19.211Z,20.42
2023-08-23T12:37:00.969Z,20.01
2023-08-23T12:38:43.023Z,20.54
2023-08-23T12:40:24.891Z,22.39
2023-08-23T12:42:06.641Z,21.21
2023-08-23T12:43:48.515Z,21.26
2023-08-23T12:45:30.638Z,21.19
2023-08-23T12:47:12.547Z,20.82
2023-08-23T12:48:54.529Z,21.00
2023-08-23T12:50:36.404Z,21.32
2023-08-23T12:52:18.164Z,21.94
2023-08-23T12:53:59.945Z,21.03
2023-08-23T12:55:41.714Z,22.08
2023-08-23T12:57:23.462Z,20.92
2023-08-23T12:59:05.223Z,20.84
2023-08-23T13:00:47.207Z,21.11
2023-08-23T13:02:29.142Z,21.23
2023-08-23T13:04:12.441Z,21.65
2023-08-23T13:05:54.216Z,20.32
2023-08-23T13:07:35.990Z,20.95
2023-08-23T13:09:17.736Z,22.42
2023-08-23T13:10:59.552Z,21.79
2023-08-23T13:12:41.334Z,20.90
2023-08-23T13:14:23.879Z,21.63
2023-08-23T13:16:05.904Z,21.30
2023-08-23T13:17:48.080Z,21.92
2023-08-23T13:19:30.469Z,20.33
2023-08-23T13:21:12.455Z,20.26
2023-08-23T13:22:54.459Z,22.10
2023-08-23T13:24:37.772Z,22.26
2023-08-23T13:26:19.770Z,21.33
2023-08-23T13:28:01.609Z,21.80
2023-08-23T13:29:43.400Z,21.01
2023-08-23T13:31:25.250Z,19.74
2023-08-23T13:33:07.254Z,20.25
2023-08-23T13:34:49.195Z,22.23
2023-08-23T13:36:30.961Z,20.57
2023-08-23T13:38:12.718Z,20.93
2023-08-23T13:39:54.484Z,20.48
2023-08-23T13:41:36.230Z,21.37
2023-08-23T13:43:17.996Z,20.33
2023-08-23T13:44:59.766Z,20.59
2023-08-23T13:46:41.607Z,20.74
2023-08-23T13:48:23.394Z,20.46
2023-08-23T13:50:05.167Z,20.69
2023-08-23T13:51:46.944Z,21.04
2023-08-23T13:53:28.702Z,21.07
2023-08-23T13:55:10.470Z,21.22
2023-08-23T13:56:52.360Z,20.86
2023-08-23T13:58:34.102Z,20.88
2023-08-23T14:00:15.842Z,22.57
2023-08-23T14:01:57.624Z,20.57
2023-08-23T14:03:39.375Z,21.06
2023-08-23T14:05:23.666Z,20.81
2023-08-23T14:07:05.497Z,20.59
2023-08-23T14:08:47.273Z,20.95
2023-08-23T14:10:29.021Z,21.70
2023-08-23T14:12:10.781Z,20.67
2023-08-23T14:13:53.191Z,21.66
2023-08-23T14:15:35.081Z,21.63
2023-08-23T14:17:16.838Z,21.37
2023-08-23T14:18:58.865Z,21.33
2023-08-23T14:20:40.728Z,21.68
2023-08-23T14:22:23.445Z,22.09
2023-08-23T14:24:05.209Z,21.68
2023-08-23T14:25:46.980Z,21.37
2023-08-23T14:27:30.064Z,22.56
2023-08-23T14:29:14.387Z,22.05
2023-08-23T14:30:56.571Z,20.95
2023-08-23T14:32:38.562Z,22.68
2023-08-23T14:34:20.488Z,22.06
2023-08-23T14:36:02.489Z,21.49
2023-08-23T14:37:44.320Z,21.40
2023-08-23T14:39:26.086Z,21.07
2023-08-23T14:41:07.882Z,20.86
2023-08-23T14:42:49.686Z,20.72
2023-08-23T14:44:31.461Z,20.89
2023-08-23T14:46:13.231Z,22.67
2023-08-23T14:47:55.036Z,22.28
2023-08-23T14:49:36.840Z,22.13
2023-08-23T14:51:18.646Z,22.04
2023-08-23T14:53:00.396Z,22.67
2023-08-23T14:54:42.145Z,20.55
2023-08-23T14:56:23.902Z,20.86
2023-08-23T14:58:05.633Z,21.02
2023-08-23T14:59:47.385Z,21.02
2023-08-23T15:01:29.167Z,21.40
2023-08-23T15:03:11.104Z,22.10
2023-08-23T15:04:52.935Z,22.77
2023-08-23T15:06:34.691Z,22.56
2023-08-23T15:08:16.461Z,22.73
2023-08-23T15:09:58.226Z,23.08
2023-08-23T15:11:40.003Z,22.24
2023-08-23T15:13:21.746Z,22.49
2023-08-23T15:15:03.500Z,22.21
2023-08-23T15:16:47.286Z,22.03
2023-08-23T15:18:29.319Z,22.00
2023-08-23T15:20:11.122Z,21.91
2023-08-23T15:21:52.887Z,21.93
2023-08-23T15:23:34.633Z,22.49
2023-08-23T15:25:16.424Z,21.80
2023-08-23T15:26:58.167Z,21.12
2023-08-23T15:28:50.713Z,22.20
2023-08-23T15:30:39.080Z,22.39
2023-08-23T15:32:21.814Z,23.26
2023-08-23T15:34:03.582Z,22.43
2023-08-23T15:35:45.590Z,22.01
2023-08-23T15:37:27.427Z,23.05
2023-08-23T15:39:09.167Z,21.51
2023-08-23T15:40:51.063Z,22.11
2023-08-23T15:42:32.903Z,22.70
2023-08-23T15:44:14.665Z,22.05
2023-08-23T15:45:56.421Z,22.94
2023-08-23T15:47:38.359Z,23.08
2023-08-23T15:49:20.165Z,23.20
2023-08-23T15:51:01.903Z,24.18
2023-08-23T15:52:43.658Z,23.18
2023-08-23T15:54:25.408Z,23.48
2023-08-23T15:56:07.162Z,22.98
2023-08-23T15:57:48.997Z,23.68
2023-08-23T15:59:30.937Z,24.24
2023-08-23T16:01:12.721Z,24.53
2023-08-23T16:02:54.591Z,25.05
2023-08-23T16:04:36.511Z,23.87
2023-08-23T16:06:18.291Z,24.37
2023-08-23T16:08:00.053Z,24.87
2023-08-23T16:09:42.338Z,24.76
2023-08-23T16:11:24.426Z,24.30
2023-08-23T16:13:06.285Z,24.65
2023-08-23T16:14:48.087Z,24.82
2023-08-23T16:16:29.931Z,25.19
2023-08-23T16:18:12.482Z,25.11
2023-08-23T16:19:54.392Z,24.63
2023-08-23T16:21:36.162Z,24.75
2023-08-23T16:23:18.001Z,25.00
2023-08-23T16:24:59.751Z,24.93
2023-08-23T16:26:41.609Z,24.95
2023-08-23T16:28:23.357Z,24.80
2023-08-23T16:30:05.799Z,24.43
2023-08-23T16:31:47.767Z,24.96
2023-08-23T16:33:29.577Z,26.08
2023-08-23T16:35:11.542Z,25.52
2023-08-23T16:36:53.446Z,26.35
2023-08-23T16:38:35.211Z,26.11
2023-08-23T16:40:16.978Z,26.20
2023-08-23T16:41:58.728Z,26.44
2023-08-23T16:43:40.533Z,25.98
2023-08-23T16:45:22.306Z,25.98
2023-08-23T16:47:04.068Z,26.17
2023-08-23T16:48:45.874Z,27.39
2023-08-23T16:50:27.617Z,26.65
2023-08-23T16:52:09.362Z,26.41
2023-08-23T16:53:51.136Z,26.18
2023-08-23T16:55:32.876Z,25.89
2023-08-23T16:57:14.631Z,26.23
2023-08-23T16:58:56.410Z,26.08
2023-08-23T17:00:38.158Z,27.05
2023-08-23T17:02:19.952Z,27.52
2023-08-23T17:04:01.736Z,26.51
2023-08-23T17:05:43.547Z,25.77
2023-08-23T17:07:25.332Z,26.50
2023-08-23T17:09:07.094Z,26.92
2023-08-23T17:10:48.863Z,27.21
2023-08-23T17:12:30.626Z,28.79
2023-08-23T17:14:12.412Z,28.06
2023-08-23T17:15:54.195Z,28.39
2023-08-23T17:17:36.076Z,28.09
2023-08-23T17:19:18.213Z,27.42
2023-08-23T17:21:00.271Z,27.96
2023-08-23T17:22:42.066Z,27.32
2023-08-23T17:24:23.837Z,27.80
2023-08-23T17:26:05.648Z,28.99
2023-08-23T17:27:47.500Z,29.19
2023-08-23T17:29:29.265Z,28.90
2023-08-23T17:31:11.072Z,28.48
2023-08-23T17:32:53.154Z,29.14
2023-08-23T17:34:35.119Z,29.88
2023-08-23T17:36:16.900Z,30.71
2023-08-23T17:37:58.930Z,31.14
2023-08-23T17:39:40.809Z,30.23
2023-08-23T17:41:22.783Z,30.03
2023-08-23T17:43:04.660Z,29.97
2023-08-23T17:44:46.440Z,29.84
2023-08-23T17:46:28.238Z,30.57
2023-08-23T17:48:10.026Z,31.20
2023-08-23T17:49:51.786Z,31.62
2023-08-23T17:51:33.590Z,31.94
2023-08-23T17:53:15.378Z,31.44
2023-08-23T17:54:57.161Z,31.53
2023-08-23T17:56:38.920Z,31.38
2023-08-23T17:58:20.683Z,31.22
2023-08-23T18:00:02.481Z,31.26
2023-08-23T18:01:44.286Z,31.96
2023-08-23T18:03:26.026Z,31.51
2023-08-23T18:05:07.846Z,31.48
2023-08-23T18:06:49.983Z,33.42
2023-08-23T18:08:32.026Z,31.85
2023-08-23T18:10:13.773Z,32.28
2023-08-23T18:11:55.544Z,32.47
2023-08-23T18:13:37.331Z,32.50
2023-08-23T18:15:19.093Z,32.20
2023-08-23T18:17:00.862Z,32.24
2023-08-23T18:18:42.603Z,32.67
2023-08-23T18:20:24.374Z,32.84
2023-08-23T18:22:06.151Z,32.76
2023-08-23T18:23:47.940Z,33.10
2023-08-23T18:25:29.706Z,34.12
2023-08-23T18:27:11.450Z,33.89
2023-08-23T18:28:53.243Z,33.91
2023-08-23T18:30:35.051Z,33.84
2023-08-23T18:32:17.937Z,34.64
2023-08-23T18:33:59.759Z,35.11
2023-08-23T18:35:41.527Z,33.93
2023-08-23T18:37:23.319Z,33.80
2023-08-23T18:39:05.113Z,34.36
2023-08-23T18:40:46.888Z,34.64
2023-08-23T18:42:28.691Z,35.47
2023-08-23T18:44:10.468Z,35.05
2023-08-23T18:45:52.228Z,35.01
2023-08-23T18:47:34.016Z,35.31
2023-08-23T18:49:15.829Z,34.90
2023-08-23T18:50:57.582Z,34.86
2023-08-23T18:52:39.351Z,34.54
2023-08-23T18:54:21.153Z,34.27
2023-08-23T18:56:02.902Z,33.98
2023-08-23T18:57:44.658Z,34.12
2023-08-23T18:59:26.424Z,34.97
2023-08-23T19:01:08.197Z,35.60
2023-08-23T19:02:50.175Z,35.49
2023-08-23T19:04:32.155Z,35.24
2023-08-23T19:06:13.937Z,34.98
2023-08-23T19:07:55.694Z,35.13
2023-08-23T19:09:37.479Z,36.49
2023-08-23T19:11:19.250Z,36.13
2023-08-23T19:13:01.026Z,35.19
2023-08-23T19:14:42.788Z,35.12
2023-08-23T19:16:24.601Z,35.33
2023-08-23T19:18:06.434Z,35.41
2023-08-23T19:19:48.233Z,35.77
2023-08-23T19:21:29.996Z,35.61
2023-08-23T19:23:11.757Z,36.70
2023-08-23T19:24:53.540Z,37.20
2023-08-23T19:26:35.333Z,36.89
2023-08-23T19:28:17.119Z,36.31
2023-08-23T19:29:58.912Z,36.23
2023-08-23T19:31:40.683Z,36.72
2023-08-23T19:33:22.497Z,37.03
2023-08-23T19:35:04.264Z,37.72
2023-08-23T19:36:46.052Z,36.94
2023-08-23T19:38:27.841Z,37.02
2023-08-23T19:40:09.768Z,37.68
2023-08-23T19:41:51.533Z,38.15
2023-08-23T19:43:33.354Z,38.20
2023-08-23T19:45:16.220Z,37.88
2023-08-23T19:46:58.148Z,38.43
2023-08-23T19:48:39.960Z,38.42
2023-08-23T19:50:23.008Z,37.90
2023-08-23T19:52:06.479Z,37.95
2023-08-23T19:53:48.258Z,37.58
2023-08-23T19:55:30.033Z,38.07
2023-08-23T19:57:11.833Z,37.54
2023-08-23T19:58:53.607Z,37.47
2023-08-23T20:00:35.374Z,37.83
2023-08-23T20:02:17.172Z,36.90
2023-08-23T20:03:58.983Z,37.11
2023-08-23T20:05:40.745Z,36.75
2023-08-23T20:07:22.487Z,36.72
2023-08-23T20:09:04.261Z,36.74
2023-08-23T20:10:46.032Z,35.74
2023-08-23T20:12:27.784Z,36.39
2023-08-23T20:14:09.536Z,35.78
2023-08-23T20:15:51.316Z,35.33
2023-08-23T20:17:33.090Z,35.91
2023-08-23T20:19:14.865Z,36.52
2023-08-23T20:20:56.613Z,35.77
2023-08-23T20:22:39.917Z,35.74
2023-08-23T20:24:21.666Z,35.46
2023-08-23T20:26:03.432Z,35.87
2023-08-23T20:27:45.201Z,35.72
2023-08-23T20:29:26.963Z,36.50
2023-08-23T20:31:08.749Z,36.11
2023-08-23T20:32:50.514Z,36.95
2023-08-23T20:34:32.308Z,36.70
2023-08-23T20:36:14.055Z,36.84
2023-08-23T20:37:55.783Z,36.18
2023-08-23T20:39:37.552Z,36.88
2023-08-23T20:41:19.348Z,37.61
2023-08-23T20:43:01.101Z,36.70
2023-08-23T20:44:42.848Z,36.96
2023-08-23T20:46:24.596Z,37.09
2023-08-23T20:48:06.479Z,35.84
2023-08-23T20:49:48.248Z,35.82
2023-08-23T20:51:30.024Z,36.76
2023-08-23T20:53:11.811Z,36.71
2023-08-23T20:54:53.556Z,36.89
2023-08-23T20:56:35.309Z,37.55
2023-08-23T20:58:17.048Z,38.22
2023-08-23T20:59:58.840Z,38.29
2023-08-23T21:01:40.601Z,36.74
2023-08-23T21:03:22.372Z,36.16
2023-08-23T21:05:04.125Z,35.53
2023-08-23T21:06:46.524Z,35.81
2023-08-23T21:08:28.378Z,37.53
2023-08-23T21:10:10.156Z,37.35
2023-08-23T21:11:52.168Z,37.56
2023-08-23T21:13:34.001Z,34.98
2023-08-23T21:15:15.767Z,36.82
2023-08-23T21:16:57.533Z,36.53
2023-08-23T21:18:39.312Z,36.39
2023-08-23T21:20:21.075Z,36.43
2023-08-23T21:22:02.806Z,36.84
2023-08-23T21:23:44.548Z,36.91
2023-08-23T21:25:26.291Z,36.54
2023-08-23T21:27:08.040Z,36.09
2023-08-23T21:28:49.772Z,36.67
2023-08-23T21:30:31.580Z,36.22
2023-08-23T21:32:13.428Z,36.57
2023-08-23T21:33:55.209Z,37.30
2023-08-23T21:35:36.978Z,36.32
2023-08-23T21:37:18.775Z,37.70
2023-08-23T21:39:00.510Z,38.59
2023-08-23T21:40:42.272Z,37.43
2023-08-23T21:42:24.032Z,37.40
2023-08-23T21:44:05.763Z,38.43
2023-08-23T21:45:47.522Z,37.33
2023-08-23T21:47:29.336Z,37.28
2023-08-23T21:49:11.122Z,37.62
2023-08-23T21:50:52.901Z,38.17
2023-08-23T21:52:34.666Z,38.21
2023-08-23T21:54:16.402Z,37.29